createdAt,value
2022-11-12T00:00:45.306Z,10.11
2022-11-12T00:03:11.822Z,10.13
2022-11-12T00:05:38.258Z,10.17
2022-11-12T00:08:04.674Z,10.15
2022-11-12T00:10:32.178Z,10.18
2022-11-12T00:12:59.061Z,10.13
2022-11-12T00:15:26.136Z,10.11
2022-11-12T00:17:52.568Z,10.08
2022-11-12T00:20:18.972Z,10.10
2022-11-12T00:22:45.265Z,10.11
2022-11-12T00:25:11.585Z,10.18
2022-11-12T00:27:37.955Z,10.21
2022-11-12T00:30:05.105Z,10.16
2022-11-12T00:32:31.537Z,10.13
2022-11-12T00:35:01.380Z,10.11
2022-11-12T00:37:29.020Z,10.12
2022-11-12T00:39:55.346Z,10.04
2022-11-12T00:42:21.649Z,10.02
2022-11-12T00:44:49.749Z,10.06
2022-11-12T00:47:16.468Z,10.09
2022-11-12T00:49:42.863Z,9.99
2022-11-12T00:52:09.146Z,10.01
2022-11-12T00:54:35.449Z,10.00
2022-11-12T00:57:01.777Z,9.97
2022-11-12T00:59:28.082Z,9.92
2022-11-12T01:01:54.391Z,9.93
2022-11-12T01:04:20.696Z,9.93
2022-11-12T01:06:47.014Z,9.96
2022-11-12T01:09:13.361Z,9.98
2022-11-12T01:11:41.125Z,9.93
2022-11-12T01:14:09.707Z,9.93
2022-11-12T01:16:40.043Z,9.95
2022-11-12T01:19:08.747Z,9.79
2022-11-12T01:21:39.817Z,9.76
2022-11-12T01:24:06.509Z,9.79
2022-11-12T01:26:32.841Z,9.82
2022-11-12T01:28:59.459Z,9.82
2022-11-12T01:31:31.794Z,9.85
2022-11-12T01:34:01.018Z,9.75
2022-11-12T01:36:30.691Z,9.75
2022-11-12T01:38:56.984Z,9.77
2022-11-12T01:41:27.139Z,9.79
2022-11-12T01:44:10.132Z,9.81
2022-11-12T01:47:01.655Z,9.73
2022-11-12T01:49:54.257Z,9.68
2022-11-12T01:52:34.379Z,9.66
2022-11-12T01:55:11.394Z,9.58
2022-11-12T01:57:43.156Z,9.44
2022-11-12T02:00:13.702Z,9.36
2022-11-12T02:02:40.688Z,9.21
2022-11-12T02:05:10.235Z,9.01
2022-11-12T02:07:39.454Z,8.94
2022-11-12T02:10:07.719Z,8.92
2022-11-12T02:12:53.238Z,8.86
2022-11-12T02:15:19.567Z,8.72
2022-11-12T02:17:45.924Z,8.63
2022-11-12T02:20:14.042Z,8.52
2022-11-12T02:22:40.426Z,8.44
2022-11-12T02:25:07.362Z,8.43
2022-11-12T02:27:34.249Z,8.39
2022-11-12T02:30:00.539Z,8.30
2022-11-12T02:32:26.865Z,8.32
2022-11-12T02:34:53.223Z,8.39
2022-11-12T02:37:19.663Z,8.40
2022-11-12T02:39:45.975Z,8.41
2022-11-12T02:42:12.273Z,8.45
2022-11-12T02:44:38.613Z,8.46
2022-11-12T02:47:04.918Z,8.47
2022-11-12T02:49:31.244Z,8.45
2022-11-12T02:51:57.538Z,8.48
2022-11-12T02:54:23.822Z,8.50
2022-11-12T02:56:50.094Z,8.52
2022-11-12T02:59:16.409Z,8.51
2022-11-12T03:01:42.699Z,8.49
2022-11-12T03:04:09.118Z,8.42
2022-11-12T03:06:35.431Z,8.45
2022-11-12T03:09:01.825Z,8.43
2022-11-12T03:11:28.237Z,8.40
2022-11-12T03:13:54.617Z,8.34
2022-11-12T03:16:20.914Z,8.32
2022-11-12T03:18:47.189Z,8.21
2022-11-12T03:21:13.482Z,8.17
2022-11-12T03:23:39.805Z,8.08
2022-11-12T03:26:06.282Z,7.98
2022-11-12T03:28:32.949Z,7.98
2022-11-12T03:31:00.393Z,7.93
2022-11-12T03:33:26.810Z,7.90
2022-11-12T03:35:53.300Z,7.82
2022-11-12T03:38:20.061Z,7.64
2022-11-12T03:40:46.357Z,7.60
2022-11-12T03:43:12.682Z,7.59
2022-11-12T03:45:39.032Z,7.61
2022-11-12T03:48:05.696Z,7.52
2022-11-12T03:50:32.034Z,7.47
2022-11-12T03:52:59.493Z,7.40
2022-11-12T03:55:28.190Z,7.33
2022-11-12T03:57:55.612Z,7.24
2022-11-12T04:00:24.177Z,7.17
2022-11-12T04:02:51.124Z,7.14
2022-11-12T04:05:36.099Z,7.11
2022-11-12T04:08:31.691Z,7.06
2022-11-12T04:10:58.111Z,6.96
2022-11-12T04:13:27.523Z,7.08
2022-11-12T04:16:19.935Z,6.94
2022-11-12T04:19:07.539Z,6.88
2022-11-12T04:21:50.530Z,6.84
2022-11-12T04:24:45.636Z,6.81
2022-11-12T04:27:19.893Z,6.76
2022-11-12T04:30:05.460Z,6.72
2022-11-12T04:32:34.892Z,6.67
2022-11-12T04:35:01.799Z,6.67
2022-11-12T04:37:44.046Z,6.64
2022-11-12T04:40:41.206Z,6.57
2022-11-12T04:43:29.618Z,6.46
2022-11-12T04:45:56.392Z,6.48
2022-11-12T04:48:24.618Z,6.44
2022-11-12T04:51:23.886Z,6.41
2022-11-12T04:53:50.567Z,6.37
2022-11-12T04:56:16.963Z,6.38
2022-11-12T04:58:43.291Z,6.43
2022-11-12T05:01:09.688Z,6.49
2022-11-12T05:03:36.039Z,6.47
2022-11-12T05:06:04.384Z,6.43
2022-11-12T05:08:30.806Z,6.43
2022-11-12T05:10:57.092Z,6.39
2022-11-12T05:13:23.387Z,6.48
2022-11-12T05:15:49.692Z,6.39
2022-11-12T05:18:15.968Z,6.31
2022-11-12T05:20:42.309Z,6.27
2022-11-12T05:23:08.639Z,6.25
2022-11-12T05:25:35.929Z,6.18
2022-11-12T05:28:02.271Z,6.23
2022-11-12T05:30:28.640Z,6.09
2022-11-12T05:32:54.933Z,6.09
2022-11-12T05:35:21.271Z,5.95
2022-11-12T05:37:47.607Z,5.95
2022-11-12T05:40:14.053Z,5.90
2022-11-12T05:42:40.402Z,5.95
2022-11-12T05:45:07.604Z,5.84
2022-11-12T05:47:33.900Z,5.88
2022-11-12T05:50:00.179Z,5.77
2022-11-12T05:52:26.572Z,5.67
2022-11-12T05:54:52.848Z,5.62
2022-11-12T05:57:19.129Z,5.48
2022-11-12T05:59:45.417Z,5.46
2022-11-12T06:02:11.779Z,5.45
2022-11-12T06:04:38.096Z,5.32
2022-11-12T06:07:04.467Z,5.30
2022-11-12T06:09:30.887Z,5.33
2022-11-12T06:11:57.193Z,5.28
2022-11-12T06:14:23.480Z,5.24
2022-11-12T06:16:49.795Z,5.25
2022-11-12T06:19:16.084Z,5.17
2022-11-12T06:21:42.421Z,5.18
2022-11-12T06:24:09.067Z,5.19
2022-11-12T06:26:36.118Z,5.06
2022-11-12T06:29:02.405Z,4.96
2022-11-12T06:31:28.711Z,4.98
2022-11-12T06:33:55.075Z,4.94
2022-11-12T06:36:21.463Z,4.98
2022-11-12T06:38:48.088Z,4.98
2022-11-12T06:41:14.519Z,4.84
2022-11-12T06:43:41.833Z,4.83
2022-11-12T06:46:12.192Z,4.81
2022-11-12T06:48:38.823Z,4.73
2022-11-12T06:51:07.494Z,4.83
2022-11-12T06:53:33.779Z,4.87
2022-11-12T06:56:02.864Z,4.94
2022-11-12T06:58:29.643Z,4.99
2022-11-12T07:00:56.096Z,4.93
2022-11-12T07:03:22.626Z,5.01
2022-11-12T07:05:48.918Z,5.12
2022-11-12T07:08:15.195Z,5.10
2022-11-12T07:10:41.497Z,5.18
2022-11-12T07:13:07.775Z,5.19
2022-11-12T07:15:34.155Z,5.19
2022-11-12T07:18:00.472Z,5.16
2022-11-12T07:20:26.784Z,5.25
2022-11-12T07:22:53.159Z,5.28
2022-11-12T07:25:19.494Z,5.21
2022-11-12T07:27:45.851Z,5.22
2022-11-12T07:30:12.565Z,5.26
2022-11-12T07:32:44.811Z,5.31
2022-11-12T07:35:13.717Z,5.35
2022-11-12T07:37:40.011Z,5.33
2022-11-12T07:40:06.918Z,5.34
2022-11-12T07:42:34.688Z,5.38
2022-11-12T07:45:01.322Z,5.40
2022-11-12T07:47:27.807Z,5.47
2022-11-12T07:49:54.309Z,5.47
2022-11-12T07:52:21.498Z,5.49
2022-11-12T07:54:48.012Z,5.53
2022-11-12T07:57:14.299Z,5.55
2022-11-12T07:59:45.658Z,5.63
2022-11-12T08:02:12.622Z,5.72
2022-11-12T08:04:38.952Z,5.79
2022-11-12T08:07:05.358Z,5.90
2022-11-12T08:09:31.732Z,5.88
2022-11-12T08:11:58.078Z,5.96
2022-11-12T08:14:24.734Z,6.00
2022-11-12T08:16:51.017Z,6.10
2022-11-12T08:19:17.432Z,6.13
2022-11-12T08:21:44.460Z,6.28
2022-11-12T08:24:10.776Z,6.42
2022-11-12T08:26:37.059Z,6.53
2022-11-12T08:29:08.046Z,6.60
2022-11-12T08:31:34.878Z,6.70
2022-11-12T08:34:11.819Z,6.77
2022-11-12T08:36:39.121Z,6.82
2022-11-12T08:39:06.009Z,6.86
2022-11-12T08:41:32.596Z,6.93
2022-11-12T08:44:00.925Z,7.07
2022-11-12T08:46:30.545Z,7.13
2022-11-12T08:48:56.904Z,7.22
2022-11-12T08:51:23.266Z,7.22
2022-11-12T08:53:49.640Z,7.39
2022-11-12T08:56:16.160Z,7.45
2022-11-12T08:58:42.526Z,7.51
2022-11-12T09:01:09.220Z,7.59
2022-11-12T09:03:35.744Z,7.67
2022-11-12T09:06:04.592Z,7.78
2022-11-12T09:08:34.311Z,7.88
2022-11-12T09:11:00.647Z,7.93
2022-11-12T09:13:27.060Z,8.06
2022-11-12T09:15:53.413Z,8.19
2022-11-12T09:18:19.703Z,8.25
2022-11-12T09:20:46.109Z,8.22
2022-11-12T09:23:14.637Z,8.23
2022-11-12T09:25:41.779Z,8.26
2022-11-12T09:28:18.503Z,8.30
2022-11-12T09:30:47.504Z,8.41
2022-11-12T09:33:17.916Z,8.61
2022-11-12T09:35:45.931Z,8.77
2022-11-12T09:38:14.725Z,8.84
2022-11-12T09:40:52.950Z,8.92
2022-11-12T09:43:27.588Z,9.07
2022-11-12T09:46:21.583Z,9.06
2022-11-12T09:48:51.952Z,9.19
2022-11-12T09:51:32.258Z,9.32
2022-11-12T09:54:02.723Z,9.45
2022-11-12T09:56:29.714Z,9.53
2022-11-12T09:58:56.201Z,9.64
2022-11-12T10:01:51.242Z,9.63
2022-11-12T10:04:44.005Z,9.73
2022-11-12T10:07:24.687Z,9.82
2022-11-12T10:09:58.346Z,9.94
2022-11-12T10:12:33.936Z,9.99
2022-11-12T10:15:31.616Z,9.99
2022-11-12T10:18:06.344Z,9.94
2022-11-12T10:20:41.386Z,9.96
2022-11-12T10:23:18.911Z,10.12
2022-11-12T10:25:47.779Z,10.20
2022-11-12T10:28:38.056Z,10.31
2022-11-12T10:31:12.463Z,10.39
2022-11-12T10:33:38.836Z,10.29
2022-11-12T10:36:24.506Z,10.37
2022-11-12T10:38:52.950Z,10.41
2022-11-12T10:41:25.949Z,10.38
2022-11-12T10:43:59.581Z,10.34
2022-11-12T10:46:31.945Z,10.36
2022-11-12T10:49:01.476Z,10.44
2022-11-12T10:51:38.273Z,10.44
2022-11-12T10:54:26.617Z,10.46
2022-11-12T10:56:55.594Z,10.54
2022-11-12T10:59:24.410Z,10.47
2022-11-12T11:01:59.378Z,10.47
2022-11-12T11:04:30.529Z,10.53
2022-11-12T11:07:04.571Z,10.62
2022-11-12T11:09:31.243Z,10.62
2022-11-12T11:11:57.993Z,10.58
2022-11-12T11:14:28.929Z,10.67
2022-11-12T11:17:00.282Z,10.79
2022-11-12T11:19:41.774Z,10.77
2022-11-12T11:22:30.106Z,10.86
2022-11-12T11:25:19.032Z,10.89
2022-11-12T11:28:03.674Z,11.07
2022-11-12T11:30:30.382Z,11.06
2022-11-12T11:33:06.154Z,11.03
2022-11-12T11:35:53.856Z,11.15
2022-11-12T11:38:42.602Z,11.22
2022-11-12T11:41:38.557Z,11.29
2022-11-12T11:44:33.276Z,11.38
2022-11-12T11:47:08.765Z,11.23
2022-11-12T11:49:44.415Z,11.18
2022-11-12T11:52:41.887Z,11.21
2022-11-12T11:55:35.453Z,11.27
2022-11-12T11:58:12.400Z,11.33
2022-11-12T12:01:03.269Z,11.44
2022-11-12T12:03:51.214Z,11.54
2022-11-12T12:06:27.978Z,11.65
2022-11-12T12:09:02.959Z,11.73
2022-11-12T12:11:36.326Z,11.77
2022-11-12T12:14:41.564Z,11.72
2022-11-12T12:17:48.760Z,11.73
2022-11-12T12:20:21.942Z,11.81
2022-11-12T12:23:02.456Z,11.84
2022-11-12T12:25:39.538Z,11.92
2022-11-12T12:28:36.787Z,11.70
2022-11-12T12:31:13.954Z,11.82
2022-11-12T12:33:48.637Z,11.75
2022-11-12T12:36:34.362Z,11.78
2022-11-12T12:39:22.510Z,11.75
2022-11-12T12:41:56.843Z,11.81
2022-11-12T12:44:44.304Z,11.85
2022-11-12T12:47:12.965Z,11.85
2022-11-12T12:49:41.245Z,11.79
2022-11-12T12:52:12.398Z,11.76
2022-11-12T12:54:38.628Z,11.79
2022-11-12T12:57:25.330Z,11.83
2022-11-12T13:00:15.482Z,11.83
2022-11-12T13:02:42.119Z,11.77
2022-11-12T13:05:30.164Z,11.83
2022-11-12T13:08:01.135Z,11.86
2022-11-12T13:10:47.061Z,11.84
2022-11-12T13:13:19.423Z,11.72
2022-11-12T13:15:48.508Z,11.73
2022-11-12T13:18:39.963Z,11.75
2022-11-12T13:21:20.679Z,11.76
2022-11-12T13:24:07.994Z,11.77
2022-11-12T13:26:44.730Z,11.76
2022-11-12T13:29:29.269Z,11.75
2022-11-12T13:32:33.658Z,11.69
2022-11-12T13:35:22.089Z,11.57
2022-11-12T13:38:10.314Z,11.51
2022-11-12T13:40:52.560Z,11.43
2022-11-12T13:43:33.371Z,11.39
2022-11-12T13:46:21.434Z,11.35
2022-11-12T13:49:03.218Z,11.29
2022-11-12T13:51:35.361Z,11.28
2022-11-12T13:54:01.848Z,11.27
2022-11-12T13:56:33.371Z,11.12
2022-11-12T13:59:14.663Z,10.99
2022-11-12T14:01:42.241Z,10.89
2022-11-12T14:04:16.199Z,10.89
2022-11-12T14:06:45.372Z,10.89
2022-11-12T14:09:31.410Z,10.86
2022-11-12T14:12:31.254Z,10.81
2022-11-12T14:15:16.328Z,10.83
2022-11-12T14:17:55.713Z,10.83
2022-11-12T14:20:33.438Z,10.83
2022-11-12T14:23:13.747Z,10.64
2022-11-12T14:25:52.547Z,10.57
2022-11-12T14:28:31.296Z,10.60
2022-11-12T14:30:59.237Z,10.57
2022-11-12T14:33:27.635Z,10.47
2022-11-12T14:35:59.924Z,10.36
2022-11-12T14:38:30.508Z,10.25
2022-11-12T14:41:02.803Z,10.28
2022-11-12T14:43:37.849Z,10.14
2022-11-12T14:46:07.305Z,10.07
2022-11-12T14:48:59.458Z,10.08
2022-11-12T14:51:29.652Z,10.03
2022-11-12T14:54:02.602Z,9.98
2022-11-12T14:56:35.931Z,9.79
2022-11-12T14:59:03.732Z,9.73
2022-11-12T15:04:25.719Z,9.63
2022-11-12T15:06:56.557Z,9.49
2022-11-12T15:09:37.203Z,9.37
2022-11-12T15:12:12.497Z,9.19
2022-11-12T15:14:38.945Z,9.13
2022-11-12T15:17:06.555Z,9.06
2022-11-12T15:19:34.835Z,9.09
2022-11-12T15:22:03.831Z,9.10
2022-11-12T15:24:37.442Z,9.03
2022-11-12T15:27:41.818Z,8.83
2022-11-12T15:30:30.440Z,8.70
2022-11-12T15:33:16.960Z,8.54
2022-11-12T15:35:45.037Z,8.50
2022-11-12T15:38:24.177Z,8.46
2022-11-12T15:40:57.303Z,8.36
2022-11-12T15:43:27.559Z,8.19
2022-11-12T15:45:56.043Z,8.18
2022-11-12T15:48:22.436Z,8.11
2022-11-12T15:50:49.563Z,8.09
2022-11-12T15:53:15.931Z,7.85
2022-11-12T15:55:43.726Z,7.86
2022-11-12T15:58:20.229Z,7.75
2022-11-12T16:00:46.984Z,7.59
2022-11-12T16:03:21.482Z,7.51
2022-11-12T16:05:48.495Z,7.54
2022-11-12T16:08:15.059Z,7.52
2022-11-12T16:10:43.791Z,7.43
2022-11-12T16:13:17.689Z,7.37
2022-11-12T16:15:44.049Z,7.36
2022-11-12T16:18:11.766Z,7.31
2022-11-12T16:20:38.387Z,7.23
2022-11-12T16:23:04.958Z,7.02
2022-11-12T16:25:34.108Z,6.99
2022-11-12T16:28:01.502Z,6.83
2022-11-12T16:30:29.876Z,6.87
2022-11-12T16:32:57.196Z,6.87
2022-11-12T16:35:24.295Z,6.75
2022-11-12T16:37:53.438Z,6.75
2022-11-12T16:40:28.146Z,6.72
2022-11-12T16:42:54.543Z,6.69
2022-11-12T16:45:23.712Z,6.64
2022-11-12T16:47:53.589Z,6.60
2022-11-12T16:50:23.118Z,6.59
2022-11-12T16:52:50.235Z,6.54
2022-11-12T16:55:16.984Z,6.45
2022-11-12T16:57:43.276Z,6.39
2022-11-12T17:00:17.700Z,6.41
2022-11-12T17:02:48.171Z,6.46
2022-11-12T17:05:25.058Z,6.39
2022-11-12T17:07:56.614Z,6.39
2022-11-12T17:10:23.877Z,6.31
2022-11-12T17:12:53.573Z,6.23
2022-11-12T17:15:20.023Z,6.04
2022-11-12T17:17:46.309Z,6.03
2022-11-12T17:20:12.630Z,6.09
2022-11-12T17:22:38.924Z,6.12
2022-11-12T17:25:06.796Z,6.16
2022-11-12T17:27:33.085Z,6.18
2022-11-12T17:29:59.408Z,6.04
2022-11-12T17:32:25.745Z,5.85
2022-11-12T17:34:52.039Z,5.77
2022-11-12T17:37:18.415Z,5.69
2022-11-12T17:39:44.747Z,5.70
2022-11-12T17:42:11.077Z,5.70
2022-11-12T17:44:37.359Z,5.72
2022-11-12T17:47:04.033Z,5.76
2022-11-12T17:49:30.371Z,5.76
2022-11-12T17:51:56.672Z,5.69
2022-11-12T17:54:22.973Z,5.47
2022-11-12T17:56:49.247Z,5.36
2022-11-12T17:59:15.555Z,5.42
2022-11-12T18:01:41.887Z,5.55
2022-11-12T18:04:10.233Z,5.56
2022-11-12T18:06:36.653Z,5.54
2022-11-12T18:09:16.437Z,5.55
2022-11-12T18:11:53.874Z,5.65
2022-11-12T18:14:22.361Z,5.73
2022-11-12T18:16:49.114Z,5.64
2022-11-12T18:19:15.647Z,5.40
2022-11-12T18:21:42.175Z,5.32
2022-11-12T18:24:15.991Z,5.44
2022-11-12T18:26:42.978Z,5.52
2022-11-12T18:29:09.299Z,5.61
2022-11-12T18:31:35.581Z,5.71
2022-11-12T18:34:01.856Z,5.75
2022-11-12T18:36:28.956Z,5.62
2022-11-12T18:38:55.842Z,5.54
2022-11-12T18:41:28.368Z,5.51
2022-11-12T18:43:55.962Z,5.52
2022-11-12T18:46:23.079Z,5.40
2022-11-12T18:48:49.910Z,5.42
2022-11-12T18:51:18.201Z,5.47
2022-11-12T18:53:45.922Z,5.56
2022-11-12T18:56:15.069Z,5.53
2022-11-12T18:58:41.759Z,5.60
2022-11-12T19:01:10.895Z,5.74
2022-11-12T19:03:37.352Z,5.67
2022-11-12T19:06:05.627Z,5.69
2022-11-12T19:08:32.122Z,5.55
2022-11-12T19:10:59.610Z,5.40
2022-11-12T19:13:26.888Z,5.28
2022-11-12T19:15:53.790Z,5.35
2022-11-12T19:18:20.238Z,5.42
2022-11-12T19:20:48.341Z,5.47
2022-11-12T19:23:14.913Z,5.41
2022-11-12T19:25:41.193Z,5.37
2022-11-12T19:28:07.568Z,5.35
2022-11-12T19:30:33.875Z,5.44
2022-11-12T19:33:00.166Z,5.53
2022-11-12T19:35:26.458Z,5.61
2022-11-12T19:37:52.734Z,5.62
2022-11-12T19:40:19.784Z,5.67
2022-11-12T19:42:47.885Z,5.69
2022-11-12T19:45:14.317Z,5.69
2022-11-12T19:47:40.590Z,5.79
2022-11-12T19:50:07.467Z,5.80
2022-11-12T19:52:33.765Z,5.76
2022-11-12T19:55:00.853Z,5.76
2022-11-12T19:57:27.682Z,5.75
2022-11-12T19:59:53.963Z,5.77
2022-11-12T20:02:20.257Z,5.83
2022-11-12T20:04:46.531Z,5.82
2022-11-12T20:07:12.931Z,5.71
2022-11-12T20:09:39.226Z,5.76
2022-11-12T20:12:06.259Z,5.66
2022-11-12T20:14:32.582Z,5.58
2022-11-12T20:16:58.923Z,5.50
2022-11-12T20:19:25.563Z,5.38
2022-11-12T20:21:51.964Z,5.29
2022-11-12T20:24:18.248Z,5.25
2022-11-12T20:26:44.578Z,5.36
2022-11-12T20:29:10.868Z,5.36
2022-11-12T20:31:37.843Z,5.35
2022-11-12T20:34:04.161Z,5.27
2022-11-12T20:36:31.338Z,5.13
2022-11-12T20:38:58.373Z,5.06
2022-11-12T20:41:26.263Z,4.91
2022-11-12T20:43:53.721Z,4.78
2022-11-12T20:46:20.652Z,4.73
2022-11-12T20:48:47.003Z,4.70
2022-11-12T20:51:24.705Z,4.75
2022-11-12T20:53:58.969Z,4.77
2022-11-12T20:56:27.397Z,4.72
2022-11-12T20:58:54.051Z,4.65
2022-11-12T21:01:22.266Z,4.58
2022-11-12T21:03:48.958Z,4.42
2022-11-12T21:06:18.107Z,4.43
2022-11-12T21:08:44.865Z,4.42
2022-11-12T21:11:14.245Z,4.52
2022-11-12T21:13:41.184Z,4.52
2022-11-12T21:16:08.489Z,4.60
2022-11-12T21:18:35.848Z,4.59
2022-11-12T21:21:14.243Z,4.53
2022-11-12T21:23:43.417Z,4.44
2022-11-12T21:26:15.338Z,4.48
2022-11-12T21:28:43.233Z,4.52
2022-11-12T21:31:15.518Z,4.58
2022-11-12T21:33:42.204Z,4.76
2022-11-12T21:36:14.841Z,4.73
2022-11-12T21:38:42.791Z,4.70
2022-11-12T21:41:12.146Z,4.63
2022-11-12T21:43:40.097Z,4.55
2022-11-12T21:46:08.293Z,4.50
2022-11-12T21:48:35.303Z,4.45
2022-11-12T21:51:09.583Z,4.45
2022-11-12T21:53:35.863Z,4.48
2022-11-12T21:56:07.902Z,4.44
2022-11-12T21:58:34.372Z,4.36
2022-11-12T22:01:22.267Z,4.43
2022-11-12T22:03:50.446Z,4.42
2022-11-12T22:06:17.482Z,4.32
2022-11-12T22:08:43.908Z,4.29
2022-11-12T22:11:12.731Z,4.30
2022-11-12T22:13:39.810Z,4.26
2022-11-12T22:16:17.985Z,4.32
2022-11-12T22:18:46.587Z,4.30
2022-11-12T22:21:16.066Z,4.20
2022-11-12T22:23:42.533Z,4.24
2022-11-12T22:26:29.261Z,4.16
2022-11-12T22:28:57.727Z,4.20
2022-11-12T22:31:27.247Z,4.18
2022-11-12T22:33:54.155Z,4.17
2022-11-12T22:36:22.889Z,4.14
2022-11-12T22:38:51.517Z,4.10
2022-11-12T22:41:26.917Z,4.15
2022-11-12T22:43:55.676Z,4.02
2022-11-12T22:46:25.517Z,4.00
2022-11-12T22:48:52.314Z,4.00
2022-11-12T22:51:23.594Z,3.93
2022-11-12T22:53:55.660Z,3.92
2022-11-12T22:56:22.842Z,3.87
2022-11-12T22:58:49.691Z,3.76
2022-11-12T23:01:23.424Z,3.77
2022-11-12T23:03:50.970Z,3.87
2022-11-12T23:06:18.421Z,3.82
2022-11-12T23:08:45.131Z,3.86
2022-11-12T23:11:14.166Z,3.85
2022-11-12T23:13:40.718Z,3.87
2022-11-12T23:16:15.929Z,3.87
2022-11-12T23:18:42.732Z,3.91
2022-11-12T23:21:15.814Z,3.88
2022-11-12T23:23:42.809Z,3.79
2022-11-12T23:26:17.774Z,3.84
2022-11-12T23:28:44.257Z,3.89
2022-11-12T23:31:19.326Z,3.95
2022-11-12T23:33:50.971Z,3.94
2022-11-12T23:36:17.773Z,4.02
2022-11-12T23:38:44.387Z,4.07
2022-11-12T23:41:12.337Z,4.05
2022-11-12T23:43:38.799Z,4.02
2022-11-12T23:46:05.267Z,4.04
2022-11-12T23:48:31.617Z,4.02
2022-11-12T23:51:04.199Z,4.03
2022-11-12T23:53:34.359Z,4.00
2022-11-12T23:56:01.559Z,4.01
2022-11-12T23:58:28.362Z,3.97
